createdAt,value
2022-11-10T00:01:32.106Z,6.45
2022-11-10T00:04:34.161Z,6.47
2022-11-10T00:07:36.700Z,6.49
2022-11-10T00:10:57.161Z,6.47
2022-11-10T00:14:18.136Z,6.49
2022-11-10T00:17:20.087Z,6.50
2022-11-10T00:20:22.524Z,6.56
2022-11-10T00:23:24.845Z,6.57
2022-11-10T00:26:26.981Z,6.62
2022-11-10T00:29:29.568Z,6.62
2022-11-10T00:32:32.294Z,6.64
2022-11-10T00:35:34.368Z,6.71
2022-11-10T00:38:36.503Z,6.66
2022-11-10T00:41:38.782Z,6.67
2022-11-10T00:44:40.870Z,6.63
2022-11-10T00:47:42.842Z,6.62
2022-11-10T00:50:44.889Z,6.62
2022-11-10T00:53:46.929Z,6.68
2022-11-10T00:56:48.940Z,6.68
2022-11-10T00:59:51.103Z,6.70
2022-11-10T01:02:53.312Z,6.79
2022-11-10T01:05:55.456Z,6.80
2022-11-10T01:08:57.484Z,6.82
2022-11-10T01:11:59.485Z,6.81
2022-11-10T01:15:01.478Z,6.82
2022-11-10T01:18:07.343Z,6.83
2022-11-10T01:21:10.215Z,6.83
2022-11-10T01:24:12.272Z,6.85
2022-11-10T01:27:14.321Z,6.89
2022-11-10T01:30:16.605Z,6.90
2022-11-10T01:33:18.630Z,6.92
2022-11-10T01:36:20.726Z,6.94
2022-11-10T01:39:22.773Z,7.01
2022-11-10T01:42:29.789Z,7.03
2022-11-10T01:45:45.928Z,7.03
2022-11-10T01:48:50.854Z,7.03
2022-11-10T01:52:04.859Z,7.06
2022-11-10T01:55:08.131Z,7.10
2022-11-10T01:58:12.421Z,7.15
2022-11-10T02:01:14.956Z,7.16
2022-11-10T02:04:19.473Z,7.16
2022-11-10T02:07:22.713Z,7.14
2022-11-10T02:10:25.409Z,7.16
2022-11-10T02:13:27.477Z,7.15
2022-11-10T02:16:30.281Z,7.17
2022-11-10T02:19:40.783Z,7.20
2022-11-10T02:22:42.791Z,7.21
2022-11-10T02:25:44.870Z,7.21
2022-11-10T02:28:47.088Z,7.20
2022-11-10T02:31:49.048Z,7.15
2022-11-10T02:34:51.073Z,7.19
2022-11-10T02:37:53.090Z,7.23
2022-11-10T02:40:55.057Z,7.23
2022-11-10T02:43:57.859Z,7.27
2022-11-10T02:46:59.811Z,7.23
2022-11-10T02:50:01.862Z,7.27
2022-11-10T02:53:04.269Z,7.25
2022-11-10T02:56:06.687Z,7.31
2022-11-10T02:59:08.674Z,7.30
2022-11-10T03:02:10.677Z,7.34
2022-11-10T03:05:13.173Z,7.32
2022-11-10T03:08:15.318Z,7.34
2022-11-10T03:11:17.360Z,7.36
2022-11-10T03:14:19.372Z,7.37
2022-11-10T03:17:21.364Z,7.37
2022-11-10T03:20:23.601Z,7.28
2022-11-10T03:23:25.587Z,7.37
2022-11-10T03:26:27.810Z,7.39
2022-11-10T03:29:29.772Z,7.38
2022-11-10T03:32:32.443Z,7.42
2022-11-10T03:35:34.570Z,7.40
2022-11-10T03:38:36.649Z,7.42
2022-11-10T03:41:38.612Z,7.45
2022-11-10T03:44:40.638Z,7.46
2022-11-10T03:47:48.213Z,7.48
2022-11-10T03:50:50.276Z,7.49
2022-11-10T03:53:52.256Z,7.41
2022-11-10T03:56:54.759Z,7.42
2022-11-10T03:59:56.727Z,7.41
2022-11-10T04:02:58.861Z,7.42
2022-11-10T04:06:19.422Z,7.39
2022-11-10T04:09:21.475Z,7.40
2022-11-10T04:12:42.367Z,7.33
2022-11-10T04:15:44.439Z,7.29
2022-11-10T04:18:46.405Z,7.30
2022-11-10T04:21:48.363Z,7.23
2022-11-10T04:24:50.320Z,7.20
2022-11-10T04:27:52.238Z,7.18
2022-11-10T04:30:54.255Z,7.15
2022-11-10T04:33:56.635Z,7.21
2022-11-10T04:36:58.606Z,7.15
2022-11-10T04:40:00.531Z,7.25
2022-11-10T04:43:02.533Z,7.23
2022-11-10T04:46:05.648Z,7.20
2022-11-10T04:49:08.120Z,7.20
2022-11-10T04:52:10.060Z,7.19
2022-11-10T04:55:12.410Z,7.21
2022-11-10T04:58:15.294Z,7.26
2022-11-10T05:01:20.876Z,7.30
2022-11-10T05:04:23.047Z,7.34
2022-11-10T05:07:25.613Z,7.37
2022-11-10T05:10:27.923Z,7.40
2022-11-10T05:13:29.931Z,7.41
2022-11-10T05:16:31.966Z,7.41
2022-11-10T05:19:34.092Z,7.45
2022-11-10T05:22:36.099Z,7.50
2022-11-10T05:25:40.504Z,7.54
2022-11-10T05:28:44.500Z,7.55
2022-11-10T05:31:51.269Z,7.61
2022-11-10T05:34:53.558Z,7.64
2022-11-10T05:37:55.702Z,7.69
2022-11-10T05:40:58.049Z,7.71
2022-11-10T05:44:00.106Z,7.72
2022-11-10T05:47:02.134Z,7.72
2022-11-10T05:50:05.296Z,7.76
2022-11-10T05:53:07.300Z,7.75
2022-11-10T05:56:09.339Z,7.74
2022-11-10T05:59:11.408Z,7.69
2022-11-10T06:02:13.551Z,7.76
2022-11-10T06:05:15.596Z,7.83
2022-11-10T06:08:18.135Z,7.88
2022-11-10T06:11:20.660Z,7.96
2022-11-10T06:14:22.602Z,7.98
2022-11-10T06:17:25.817Z,8.02
2022-11-10T06:20:28.662Z,8.03
2022-11-10T06:23:30.680Z,8.03
2022-11-10T06:26:32.702Z,8.10
2022-11-10T06:29:34.753Z,8.12
2022-11-10T06:32:36.767Z,8.15
2022-11-10T06:35:38.860Z,8.15
2022-11-10T06:38:40.888Z,8.11
2022-11-10T06:41:42.815Z,8.13
2022-11-10T06:44:44.928Z,8.08
2022-11-10T06:47:46.993Z,8.10
2022-11-10T06:50:49.089Z,8.11
2022-11-10T06:53:51.068Z,8.19
2022-11-10T06:56:53.123Z,8.18
2022-11-10T06:59:55.366Z,8.17
2022-11-10T07:03:02.417Z,8.19
2022-11-10T07:06:04.714Z,8.16
2022-11-10T07:09:06.721Z,8.16
2022-11-10T07:12:08.853Z,8.15
2022-11-10T07:15:11.066Z,8.22
2022-11-10T07:18:13.069Z,8.26
2022-11-10T07:21:15.301Z,8.20
2022-11-10T07:24:17.256Z,8.23
2022-11-10T07:27:19.224Z,8.22
2022-11-10T07:30:21.249Z,8.26
2022-11-10T07:33:23.520Z,8.30
2022-11-10T07:36:29.108Z,8.42
2022-11-10T07:39:32.059Z,8.42
2022-11-10T07:42:39.773Z,8.43
2022-11-10T07:45:41.825Z,8.49
2022-11-10T07:48:43.800Z,8.50
2022-11-10T07:51:45.732Z,8.53
2022-11-10T07:54:47.694Z,8.49
2022-11-10T07:57:50.468Z,8.58
2022-11-10T08:00:52.736Z,8.60
2022-11-10T08:03:54.769Z,8.70
2022-11-10T08:06:58.833Z,8.69
2022-11-10T08:10:00.902Z,8.79
2022-11-10T08:13:05.894Z,8.87
2022-11-10T08:16:07.969Z,8.73
2022-11-10T08:19:10.123Z,8.82
2022-11-10T08:22:12.292Z,8.87
2022-11-10T08:25:14.317Z,8.82
2022-11-10T08:28:18.329Z,8.85
2022-11-10T08:31:20.841Z,8.89
2022-11-10T08:34:23.215Z,8.86
2022-11-10T08:37:26.964Z,8.86
2022-11-10T08:40:29.162Z,8.84
2022-11-10T08:43:31.170Z,8.92
2022-11-10T08:46:33.299Z,8.96
2022-11-10T08:49:35.546Z,9.01
2022-11-10T08:52:37.666Z,9.12
2022-11-10T08:55:41.012Z,9.21
2022-11-10T08:58:50.137Z,9.25
2022-11-10T09:01:55.451Z,9.43
2022-11-10T09:04:57.520Z,9.69
2022-11-10T09:07:59.576Z,9.65
2022-11-10T09:11:04.744Z,9.60
2022-11-10T09:14:06.719Z,9.67
2022-11-10T09:17:08.755Z,9.69
2022-11-10T09:20:12.773Z,9.60
2022-11-10T09:23:17.929Z,9.80
2022-11-10T09:26:19.912Z,9.98
2022-11-10T09:29:23.088Z,10.32
2022-11-10T09:32:25.074Z,10.42
2022-11-10T09:35:27.781Z,10.53
2022-11-10T09:38:29.872Z,10.46
2022-11-10T09:41:31.996Z,10.38
2022-11-10T09:44:39.943Z,10.24
2022-11-10T09:47:57.532Z,10.10
2022-11-10T09:51:08.634Z,10.06
2022-11-10T09:54:32.106Z,10.06
2022-11-10T09:57:34.313Z,10.11
2022-11-10T10:00:36.851Z,10.08
2022-11-10T10:03:46.948Z,10.19
2022-11-10T10:07:11.802Z,10.29
2022-11-10T10:10:17.694Z,10.32
2022-11-10T10:13:38.828Z,10.36
2022-11-10T10:16:48.996Z,10.48
2022-11-10T10:19:56.249Z,10.61
2022-11-10T10:23:04.598Z,10.68
2022-11-10T10:26:13.978Z,10.82
2022-11-10T10:29:34.580Z,10.89
2022-11-10T10:32:39.278Z,10.77
2022-11-10T10:35:43.104Z,10.85
2022-11-10T10:38:50.373Z,10.90
2022-11-10T10:41:52.590Z,10.66
2022-11-10T10:45:15.690Z,10.73
2022-11-10T10:48:27.580Z,10.69
2022-11-10T10:51:31.306Z,10.61
2022-11-10T10:54:35.883Z,10.46
2022-11-10T10:57:50.024Z,10.51
2022-11-10T11:01:17.002Z,10.48
2022-11-10T11:04:28.181Z,10.40
2022-11-10T11:07:30.213Z,10.40
2022-11-10T11:10:35.320Z,10.43
2022-11-10T11:13:38.029Z,10.39
2022-11-10T11:17:00.122Z,10.36
2022-11-10T11:20:02.164Z,10.30
2022-11-10T11:23:18.668Z,10.30
2022-11-10T11:26:33.724Z,10.29
2022-11-10T11:29:42.988Z,10.36
2022-11-10T11:33:12.755Z,10.25
2022-11-10T11:36:44.004Z,10.26
2022-11-10T11:40:10.818Z,10.32
2022-11-10T11:43:18.908Z,10.41
2022-11-10T11:46:39.221Z,10.30
2022-11-10T11:49:56.580Z,10.35
2022-11-10T11:54:00.582Z,10.30
2022-11-10T11:57:27.783Z,10.36
2022-11-10T12:00:38.517Z,10.44
2022-11-10T12:03:55.694Z,10.34
2022-11-10T12:07:29.462Z,10.28
2022-11-10T12:11:05.945Z,10.31
2022-11-10T12:14:14.049Z,10.30
2022-11-10T12:17:47.420Z,10.26
2022-11-10T12:21:02.909Z,10.32
2022-11-10T12:24:29.448Z,10.35
2022-11-10T12:27:38.769Z,10.42
2022-11-10T12:30:43.066Z,10.41
2022-11-10T12:33:51.362Z,10.33
2022-11-10T12:36:53.413Z,10.39
2022-11-10T12:40:02.987Z,10.38
2022-11-10T12:43:13.888Z,10.33
2022-11-10T12:46:15.859Z,10.37
2022-11-10T12:49:31.323Z,10.38
2022-11-10T12:52:40.172Z,10.44
2022-11-10T12:55:52.010Z,10.51
2022-11-10T12:59:21.991Z,10.50
2022-11-10T13:02:34.858Z,10.35
2022-11-10T13:05:42.769Z,10.33
2022-11-10T13:08:49.981Z,10.30
2022-11-10T13:12:18.159Z,10.34
2022-11-10T13:15:38.303Z,10.30
2022-11-10T13:18:43.193Z,10.25
2022-11-10T13:21:51.141Z,10.23
2022-11-10T13:24:53.137Z,10.20
2022-11-10T13:27:55.246Z,9.97
2022-11-10T13:30:57.182Z,9.99
2022-11-10T13:34:08.304Z,9.95
2022-11-10T13:37:36.659Z,9.88
2022-11-10T13:40:39.901Z,9.88
2022-11-10T13:43:55.745Z,9.94
2022-11-10T13:47:09.754Z,9.90
2022-11-10T13:50:19.786Z,9.89
2022-11-10T13:53:40.099Z,9.80
2022-11-10T13:56:51.603Z,9.87
2022-11-10T13:59:58.007Z,9.89
2022-11-10T14:03:01.699Z,9.91
2022-11-10T14:06:09.730Z,9.95
2022-11-10T14:09:27.101Z,9.98
2022-11-10T14:12:49.189Z,10.00
2022-11-10T14:15:54.269Z,9.96
2022-11-10T14:18:56.610Z,9.95
2022-11-10T14:22:03.664Z,9.93
2022-11-10T14:25:43.284Z,9.84
2022-11-10T14:28:45.269Z,9.76
2022-11-10T14:31:47.514Z,9.73
2022-11-10T14:34:52.344Z,9.70
2022-11-10T14:38:01.657Z,9.67
2022-11-10T14:41:06.159Z,9.66
2022-11-10T14:44:15.668Z,9.63
2022-11-10T14:47:27.066Z,9.59
2022-11-10T14:50:34.779Z,9.54
2022-11-10T14:53:45.806Z,9.47
2022-11-10T14:56:48.411Z,9.47
2022-11-10T14:59:52.360Z,9.41
2022-11-10T15:02:57.412Z,9.43
2022-11-10T15:05:59.883Z,9.40
2022-11-10T15:09:24.542Z,9.38
2022-11-10T15:12:27.770Z,9.35
2022-11-10T15:15:30.022Z,9.33
2022-11-10T15:18:32.017Z,9.34
2022-11-10T15:21:34.359Z,9.31
2022-11-10T15:24:36.458Z,9.28
2022-11-10T15:27:39.069Z,9.22
2022-11-10T15:31:05.537Z,9.21
2022-11-10T15:34:45.645Z,9.17
2022-11-10T15:38:18.114Z,9.15
2022-11-10T15:41:27.429Z,9.12
2022-11-10T15:44:29.725Z,9.12
2022-11-10T15:47:32.084Z,9.12
2022-11-10T15:50:36.246Z,9.13
2022-11-10T15:53:42.542Z,9.12
2022-11-10T15:56:44.537Z,9.10
2022-11-10T15:59:46.495Z,9.06
2022-11-10T16:02:48.625Z,9.02
2022-11-10T16:05:50.702Z,9.00
2022-11-10T16:08:52.865Z,9.00
2022-11-10T16:11:54.952Z,8.98
2022-11-10T16:14:57.118Z,8.95
2022-11-10T16:17:59.068Z,8.93
2022-11-10T16:21:01.369Z,8.89
2022-11-10T16:24:03.845Z,8.84
2022-11-10T16:27:08.154Z,8.85
2022-11-10T16:30:13.848Z,8.83
2022-11-10T16:33:17.801Z,8.82
2022-11-10T16:36:23.683Z,8.82
2022-11-10T16:39:27.670Z,8.83
2022-11-10T16:42:30.049Z,8.76
2022-11-10T16:45:32.383Z,8.80
2022-11-10T16:48:36.646Z,8.79
2022-11-10T16:51:47.185Z,8.78
2022-11-10T16:54:50.797Z,8.76
2022-11-10T16:57:53.034Z,8.74
2022-11-10T17:01:00.675Z,8.73
2022-11-10T17:04:08.348Z,8.68
2022-11-10T17:07:14.810Z,8.67
2022-11-10T17:10:19.502Z,8.56
2022-11-10T17:13:21.509Z,8.55
2022-11-10T17:16:30.901Z,8.51
2022-11-10T17:19:33.853Z,8.52
2022-11-10T17:22:36.591Z,8.50
2022-11-10T17:25:38.952Z,8.53
2022-11-10T17:28:41.034Z,8.51
2022-11-10T17:31:44.196Z,8.50
2022-11-10T17:34:46.265Z,8.49
2022-11-10T17:37:53.582Z,8.48
2022-11-10T17:40:56.262Z,8.46
2022-11-10T17:43:58.657Z,8.42
2022-11-10T17:47:03.896Z,8.39
2022-11-10T17:50:07.032Z,8.37
2022-11-10T17:53:24.190Z,8.33
2022-11-10T17:56:26.429Z,8.31
2022-11-10T17:59:28.866Z,8.31
2022-11-10T18:02:31.299Z,8.35
2022-11-10T18:05:34.358Z,8.36
2022-11-10T18:08:37.752Z,8.32
2022-11-10T18:11:43.185Z,8.41
2022-11-10T18:14:45.676Z,8.37
2022-11-10T18:17:47.713Z,8.39
2022-11-10T18:20:50.337Z,8.38
2022-11-10T18:23:52.828Z,8.38
2022-11-10T18:26:55.135Z,8.38
2022-11-10T18:29:57.344Z,8.37
2022-11-10T18:33:02.293Z,8.36
2022-11-10T18:36:05.082Z,8.37
2022-11-10T18:39:07.332Z,8.36
2022-11-10T18:42:10.292Z,8.37
2022-11-10T18:45:13.338Z,8.33
2022-11-10T18:48:15.537Z,8.27
2022-11-10T18:51:18.549Z,8.20
2022-11-10T18:54:20.865Z,8.16
2022-11-10T18:57:23.132Z,8.14
2022-11-10T19:00:25.656Z,8.11
2022-11-10T19:03:27.941Z,8.13
2022-11-10T19:06:30.563Z,8.12
2022-11-10T19:09:33.136Z,8.09
2022-11-10T19:12:35.517Z,8.05
2022-11-10T19:15:42.446Z,8.03
2022-11-10T19:18:45.252Z,8.03
2022-11-10T19:21:48.099Z,8.00
2022-11-10T19:25:07.548Z,7.93
2022-11-10T19:28:12.114Z,7.82
2022-11-10T19:31:17.256Z,7.68
2022-11-10T19:34:20.005Z,7.61
2022-11-10T19:37:22.148Z,7.52
2022-11-10T19:40:24.644Z,7.41
2022-11-10T19:43:27.073Z,7.31
2022-11-10T19:46:31.069Z,7.29
2022-11-10T19:49:33.451Z,7.23
2022-11-10T19:52:35.993Z,7.19
2022-11-10T19:55:38.431Z,7.14
2022-11-10T19:58:42.790Z,7.07
2022-11-10T20:01:45.324Z,7.02
2022-11-10T20:05:06.136Z,7.00
2022-11-10T20:08:11.386Z,6.93
2022-11-10T20:11:16.576Z,6.88
2022-11-10T20:14:19.215Z,6.85
2022-11-10T20:17:22.662Z,6.88
2022-11-10T20:20:25.387Z,6.88
2022-11-10T20:23:27.801Z,6.86
2022-11-10T20:26:30.864Z,6.85
2022-11-10T20:29:33.546Z,6.82
2022-11-10T20:32:36.059Z,6.75
2022-11-10T20:35:43.971Z,6.72
2022-11-10T20:38:46.724Z,6.67
2022-11-10T20:41:51.202Z,6.64
2022-11-10T20:44:53.314Z,6.59
2022-11-10T20:47:55.681Z,6.52
2022-11-10T20:51:00.286Z,6.44
2022-11-10T20:54:02.885Z,6.38
2022-11-10T20:57:05.385Z,6.35
2022-11-10T21:00:08.562Z,6.32
2022-11-10T21:03:10.712Z,6.27
2022-11-10T21:06:12.708Z,6.17
2022-11-10T21:09:15.070Z,6.17
2022-11-10T21:12:35.928Z,6.10
2022-11-10T21:15:39.593Z,6.06
2022-11-10T21:18:41.689Z,5.99
2022-11-10T21:21:43.964Z,5.93
2022-11-10T21:24:46.032Z,5.87
2022-11-10T21:27:48.178Z,5.90
2022-11-10T21:30:50.768Z,5.90
2022-11-10T21:33:56.977Z,5.88
2022-11-10T21:36:59.006Z,5.87
2022-11-10T21:40:00.951Z,5.82
2022-11-10T21:43:03.669Z,5.83
2022-11-10T21:46:09.122Z,5.74
2022-11-10T21:49:11.127Z,5.64
2022-11-10T21:52:13.188Z,5.60
2022-11-10T21:55:15.236Z,5.50
2022-11-10T21:58:17.388Z,5.49
2022-11-10T22:01:19.670Z,5.48
2022-11-10T22:04:21.862Z,5.40
2022-11-10T22:07:23.895Z,5.32
2022-11-10T22:10:44.595Z,5.24
2022-11-10T22:14:05.546Z,5.19
2022-11-10T22:17:34.215Z,5.18
2022-11-10T22:20:36.697Z,5.18
2022-11-10T22:24:09.575Z,5.15
2022-11-10T22:30:53.628Z,5.08
2022-11-10T22:33:55.869Z,5.00
2022-11-10T22:36:59.746Z,4.93
2022-11-10T22:40:20.431Z,4.86
2022-11-10T22:43:41.033Z,4.77
2022-11-10T22:46:48.411Z,4.77
2022-11-10T22:49:50.501Z,4.74
2022-11-10T22:52:52.643Z,4.74
2022-11-10T22:55:59.634Z,4.72
2022-11-10T22:59:02.135Z,4.61
2022-11-10T23:02:04.238Z,4.54
2022-11-10T23:05:06.640Z,4.50
2022-11-10T23:08:08.759Z,4.41
2022-11-10T23:11:13.803Z,4.38
2022-11-10T23:14:16.105Z,4.37
2022-11-10T23:17:18.289Z,4.42
2022-11-10T23:20:21.201Z,4.40
2022-11-10T23:23:23.495Z,4.36
2022-11-10T23:26:30.249Z,4.35
2022-11-10T23:29:32.456Z,4.30
2022-11-10T23:32:35.296Z,4.21
2022-11-10T23:35:37.366Z,4.15
2022-11-10T23:38:40.819Z,4.06
2022-11-10T23:41:42.862Z,4.01
2022-11-10T23:44:44.960Z,4.00
2022-11-10T23:47:48.887Z,4.06
2022-11-10T23:50:51.768Z,4.04
2022-11-10T23:53:53.837Z,3.88
2022-11-10T23:56:55.949Z,3.88
2022-11-10T23:59:58.049Z,3.84
